Time;durP1;ratioP1;P1;durP2;ratioP2;P2;SDS_P1;SDS_P2;PMS_P1;PMS_P2;Temp;Humidity;BMP_temperature;BMP_pressure;BME280_temperature;BME280_humidity;BME280_pressure;Samples;Min_cycle;Max_cycle;Signal;HPM_P1;HPM_P2
2022/04/27 00:00:58;;;;;;;0.70;0.25;;;;;;;13.89;47.44;100817.88;2103579;28;20066;-72
2022/04/27 00:02:21;;;;;;;2.03;0.45;;;;;;;13.81;47.71;100820.50;2102414;28;20052;-72
2022/04/27 00:03:42;;;;;;;3.08;0.43;;;;;;;13.78;47.79;100807.25;2100478;28;20076;-72
2022/04/27 00:05:05;;;;;;;2.60;0.57;;;;;;;13.81;47.80;100809.00;2092443;28;20048;-71
2022/04/27 00:06:28;;;;;;;1.33;0.40;;;;;;;13.82;47.66;100809.03;2100063;28;20071;-73
2022/04/27 00:07:51;;;;;;;3.28;0.50;;;;;;;13.86;47.48;100812.56;2102053;28;20388;-72
2022/04/27 00:09:14;;;;;;;1.73;0.40;;;;;;;13.89;47.17;100815.25;2093905;28;20048;-72
2022/04/27 00:10:35;;;;;;;3.50;0.30;;;;;;;13.91;47.04;100802.88;2107075;28;20610;-72
2022/04/27 00:12:00;;;;;;;3.47;0.60;;;;;;;13.93;46.81;100804.63;2104924;28;20047;-73
2022/04/27 00:13:23;;;;;;;1.27;0.30;;;;;;;13.95;46.78;100812.59;2102397;28;20040;-72
2022/04/27 00:14:48;;;;;;;3.67;0.25;;;;;;;13.97;46.52;100805.53;2094659;28;20045;-73
2022/04/27 00:16:10;;;;;;;3.55;0.43;;;;;;;13.99;46.47;100811.72;2107218;28;20388;-72
2022/04/27 00:17:33;;;;;;;2.60;0.20;;;;;;;14.00;46.62;100809.94;2104671;28;20499;-72
2022/04/27 00:18:56;;;;;;;3.60;0.40;;;;;;;13.96;46.82;100807.31;2102399;28;20522;-72
2022/04/27 00:20:17;;;;;;;3.65;0.57;;;;;;;13.95;46.99;100807.28;2101996;28;20573;-72
2022/04/27 00:21:40;;;;;;;2.45;0.50;;;;;;;13.89;47.16;100804.63;2101130;28;20051;-72
2022/04/27 00:23:01;;;;;;;3.13;0.45;;;;;;;13.80;47.28;100807.25;2098172;28;20385;-73
2022/04/27 00:24:23;;;;;;;5.65;0.57;;;;;;;13.72;47.48;100806.34;2101572;28;20094;-72
2022/04/27 00:25:45;;;;;;;3.65;0.50;;;;;;;13.74;47.52;100813.41;2104904;28;20059;-72
2022/04/27 00:27:08;;;;;;;1.52;0.50;;;;;;;13.77;47.44;100808.13;2095370;28;20037;-72
2022/04/27 00:28:30;;;;;;;6.15;0.60;;;;;;;13.79;47.38;100800.16;2098895;28;20086;-72
2022/04/27 00:29:55;;;;;;;1.08;0.35;;;;;;;13.81;47.28;100803.72;2109036;28;20054;-73
2022/04/27 00:31:17;;;;;;;0.47;0.20;;;;;;;13.72;47.42;100795.75;2104873;28;20043;-73
2022/04/27 00:32:39;;;;;;;4.57;0.45;;;;;;;13.68;47.59;100801.91;2102251;28;20048;-73
2022/04/27 00:34:02;;;;;;;2.20;0.22;;;;;;;13.66;47.71;100795.69;2102170;28;20098;-73
2022/04/27 00:35:24;;;;;;;3.72;0.30;;;;;;;13.65;47.71;100801.91;2093925;28;20059;-73
2022/04/27 00:36:47;;;;;;;2.30;0.25;;;;;;;13.62;47.83;100799.22;2094795;28;20044;-72
2022/04/27 00:38:09;;;;;;;2.47;0.35;;;;;;;13.59;47.88;100799.22;2106434;28;20043;-72
2022/04/27 00:39:31;;;;;;;2.95;0.50;;;;;;;13.61;47.79;100801.00;2107782;28;20573;-72
2022/04/27 00:40:54;;;;;;;2.75;0.30;;;;;;;13.65;47.83;100799.25;2093590;28;20062;-72
2022/04/27 00:42:18;;;;;;;3.22;0.60;;;;;;;13.63;47.83;100793.03;2097618;28;20079;-73
2022/04/27 00:43:42;;;;;;;1.45;0.32;;;;;;;13.59;47.95;100796.56;2095423;28;20479;-72
2022/04/27 00:45:06;;;;;;;1.73;0.38;;;;;;;13.62;47.78;100801.88;2101697;28;20048;-73
2022/04/27 00:46:28;;;;;;;1.63;0.38;;;;;;;13.56;47.67;100798.31;2103381;28;20555;-72
2022/04/27 00:47:51;;;;;;;5.15;0.85;;;;;;;13.48;47.57;100791.22;2087281;28;20049;-72
2022/04/27 00:49:14;;;;;;;2.10;0.32;;;;;;;13.38;47.66;100792.06;2086889;28;20086;-72
2022/04/27 00:50:37;;;;;;;1.55;0.20;;;;;;;13.34;47.62;100793.78;2100852;28;20051;-73
2022/04/27 00:52:00;;;;;;;2.03;0.28;;;;;;;13.30;47.57;100789.38;2094012;28;20044;-73
2022/04/27 00:53:21;;;;;;;4.82;0.30;;;;;;;13.33;47.42;100792.03;2100940;28;20149;-73
2022/04/27 00:54:46;;;;;;;3.30;0.50;;;;;;;13.42;47.21;100794.72;2094538;28;20424;-72
2022/04/27 00:56:10;;;;;;;6.20;0.65;;;;;;;13.46;47.09;100790.31;2095670;28;20056;-72
2022/04/27 00:57:33;;;;;;;1.13;0.30;;;;;;;13.45;47.10;100791.22;2084734;28;20049;-72
2022/04/27 00:58:56;;;;;;;4.63;0.68;;;;;;;13.42;47.19;100797.38;2099624;28;20047;-73
2022/04/27 01:00:18;;;;;;;4.88;0.68;;;;;;;13.42;47.19;100789.41;2101027;28;20059;-72
2022/04/27 01:01:41;;;;;;;0.55;0.20;;;;;;;13.42;47.18;100802.69;2099416;28;20040;-72
2022/04/27 01:03:04;;;;;;;0.98;0.20;;;;;;;13.43;47.20;100798.25;2093034;28;20688;-73
2022/04/27 01:04:26;;;;;;;1.48;0.30;;;;;;;13.41;47.12;100795.59;2102272;28;20075;-72
2022/04/27 01:05:49;;;;;;;2.17;0.38;;;;;;;13.41;47.05;100790.28;2097991;28;20052;-72
2022/04/27 01:07:11;;;;;;;2.83;0.30;;;;;;;13.43;47.02;100796.50;2097239;28;20492;-72
2022/04/27 01:08:34;;;;;;;0.10;0.10;;;;;;;13.46;46.89;100793.84;2086012;28;20045;-72
2022/04/27 01:09:57;;;;;;;1.85;0.30;;;;;;;13.48;46.80;100793.84;2090798;28;20097;-72
2022/04/27 01:11:19;;;;;;;5.95;0.73;;;;;;;13.50;46.79;100797.41;2100632;28;20507;-72
2022/04/27 01:12:48;;;;;;;1.55;0.30;;;;;;;13.55;46.64;100800.97;2110958;28;20462;-72
2022/04/27 01:14:11;;;;;;;4.40;0.30;;;;;;;13.56;46.52;100794.78;2110149;28;20054;-72
2022/04/27 01:15:37;;;;;;;2.30;0.50;;;;;;;13.58;46.57;100795.69;2095428;28;20043;-72
2022/04/27 01:16:59;;;;;;;2.97;0.75;;;;;;;13.53;46.62;100794.75;2101298;28;20401;-72
2022/04/27 01:18:22;;;;;;;0.88;0.30;;;;;;;13.49;46.69;100791.22;2094526;28;20086;-72
2022/04/27 01:19:45;;;;;;;2.88;0.30;;;;;;;13.45;46.77;100786.81;2088655;28;20053;-71
2022/04/27 01:21:09;;;;;;;5.07;0.90;;;;;;;13.47;46.83;100781.47;2086999;28;20110;-72
2022/04/27 01:22:41;;;;;;;1.67;1.08;;;;;;;13.46;46.93;100788.53;2096443;28;20079;-72
2022/04/27 01:24:07;;;;;;;2.80;0.40;;;;;;;13.46;47.10;100788.53;2087084;28;20090;-72
2022/04/27 01:25:45;;;;;;;3.53;0.60;;;;;;;13.44;47.13;100785.03;2095311;28;20576;-72
2022/04/27 01:27:08;;;;;;;0.70;0.40;;;;;;;13.44;47.24;100786.78;2088543;28;20057;-72
2022/04/27 01:28:31;;;;;;;3.05;0.35;;;;;;;13.39;47.39;100789.41;2084057;28;20099;-71
2022/04/27 01:29:53;;;;;;;0.20;0.20;;;;;;;13.36;47.50;100791.16;2094585;28;20748;-72
2022/04/27 01:31:16;;;;;;;1.25;0.43;;;;;;;13.31;47.66;100785.84;2095093;28;20036;-72
2022/04/27 01:32:38;;;;;;;1.83;0.50;;;;;;;13.26;47.72;100792.00;2091783;28;20455;-72
2022/04/27 01:34:00;;;;;;;2.00;0.50;;;;;;;13.23;47.90;100786.69;2092350;28;20052;-72
2022/04/27 01:35:23;;;;;;;2.75;0.60;;;;;;;13.22;47.93;100790.19;2092434;28;20064;-72
2022/04/27 01:36:48;;;;;;;2.67;0.30;;;;;;;13.18;48.03;100781.38;2092743;28;20296;-72
2022/04/27 01:38:09;;;;;;;1.58;0.40;;;;;;;13.15;47.99;100778.69;2094752;28;20052;-72
2022/04/27 01:39:35;;;;;;;3.22;0.50;;;;;;;13.15;47.95;100789.28;2092077;28;20210;-71
2022/04/27 01:40:58;;;;;;;1.55;0.30;;;;;;;13.15;47.95;100778.69;2093308;28;20048;-73
2022/04/27 01:42:19;;;;;;;1.17;0.22;;;;;;;13.15;47.99;100779.56;2095081;28;20135;-72
2022/04/27 01:43:42;;;;;;;2.50;0.30;;;;;;;13.17;47.97;100776.94;2097002;28;20675;-72
2022/04/27 01:45:06;;;;;;;6.90;0.40;;;;;;;13.22;47.87;100779.59;2085893;28;20118;-72
2022/04/27 01:46:29;;;;;;;5.95;0.88;;;;;;;13.24;47.71;100784.03;2097223;28;20048;-72
2022/04/27 01:47:52;;;;;;;3.70;0.55;;;;;;;13.26;47.66;100781.41;2106102;28;20055;-72
2022/04/27 01:49:14;;;;;;;1.08;0.30;;;;;;;13.25;47.71;100772.56;2096924;28;20053;-72
2022/04/27 01:50:37;;;;;;;3.60;0.60;;;;;;;13.21;47.85;100783.13;2090647;28;20056;-72
2022/04/27 01:55:26;;;;;;;4.05;0.30;;;;;;;13.08;48.16;100769.78;2090248;28;20057;-72
2022/04/27 01:56:50;;;;;;;4.30;0.30;;;;;;;13.11;48.17;100771.56;2081877;28;20061;-72
2022/04/27 01:58:11;;;;;;;3.25;0.55;;;;;;;13.15;47.90;100771.63;2089838;28;20060;-72
2022/04/27 01:59:37;;;;;;;3.55;0.30;;;;;;;13.18;47.62;100776.06;2096934;28;20050;-72
2022/04/27 02:01:00;;;;;;;0.77;0.20;;;;;;;13.19;47.66;100776.94;2093814;28;20085;-71
2022/04/27 02:02:23;;;;;;;6.80;0.40;;;;;;;13.16;47.64;100765.44;2098487;28;20146;-74
2022/04/27 02:03:47;;;;;;;2.30;0.20;;;;;;;13.15;47.68;100773.38;2095126;28;20516;-72
2022/04/27 02:05:10;;;;;;;0.55;0.25;;;;;;;13.15;47.79;100771.63;2092881;28;20048;-72
2022/04/27 02:06:35;;;;;;;3.10;0.13;;;;;;;13.14;47.96;100766.31;2092010;28;20524;-71
2022/04/27 02:08:02;;;;;;;2.08;0.17;;;;;;;13.12;47.98;100770.69;2095176;28;20051;-72
2022/04/27 02:09:24;;;;;;;1.33;0.30;;;;;;;13.08;48.02;100768.88;2091377;28;20650;-72
2022/04/27 02:10:47;;;;;;;2.72;0.35;;;;;;;13.07;48.07;100772.41;2086788;28;20163;-71
2022/04/27 02:12:09;;;;;;;3.50;0.45;;;;;;;13.04;48.20;100765.34;2092308;28;20508;-72
2022/04/27 02:13:33;;;;;;;3.70;0.47;;;;;;;13.00;48.23;100768.84;2091505;28;20086;-71
2022/04/27 02:14:57;;;;;;;3.80;0.50;;;;;;;12.95;48.48;100769.69;2092114;28;20057;-72
2022/04/27 02:16:19;;;;;;;2.33;0.43;;;;;;;12.92;48.58;100772.34;2086672;28;20041;-72
2022/04/27 02:17:44;;;;;;;1.83;0.40;;;;;;;12.92;48.58;100770.59;2094803;28;20475;-72
2022/04/27 02:19:06;;;;;;;4.45;0.63;;;;;;;12.93;48.63;100769.69;2094790;28;20052;-72
2022/04/27 02:20:30;;;;;;;1.05;0.30;;;;;;;12.94;48.65;100771.44;2092483;28;20054;-73
2022/04/27 02:21:51;;;;;;;4.50;0.38;;;;;;;12.91;48.73;100776.75;2101907;28;20136;-72
2022/04/27 02:23:19;;;;;;;1.35;0.55;;;;;;;12.87;48.79;100772.28;2097253;28;20057;-72
2022/04/27 02:24:43;;;;;;;4.82;0.45;;;;;;;12.84;48.54;100774.06;2093864;28;20396;-72
2022/04/27 02:26:05;;;;;;;4.95;0.45;;;;;;;12.87;48.80;100768.75;2097272;28;20037;-72
2022/04/27 02:27:27;;;;;;;3.30;0.35;;;;;;;12.85;48.81;100774.06;2094258;28;20419;-72
2022/04/27 02:28:50;;;;;;;1.88;0.60;;;;;;;12.85;48.76;100770.53;2099284;28;20056;-72
2022/04/27 02:30:13;;;;;;;4.63;0.50;;;;;;;12.90;48.65;100769.69;2093900;28;20048;-72
2022/04/27 02:31:36;;;;;;;2.67;0.30;;;;;;;12.96;48.46;100775.00;2096661;28;20143;-71
2022/04/27 02:32:59;;;;;;;1.55;0.20;;;;;;;12.96;48.43;100774.13;2086337;28;20049;-72
2022/04/27 02:34:21;;;;;;;1.05;0.32;;;;;;;12.96;48.36;100776.78;2093090;28;20041;-72
2022/04/27 02:35:44;;;;;;;2.30;0.35;;;;;;;12.99;48.32;100771.50;2094304;28;20076;-71
2022/04/27 02:37:07;;;;;;;0.28;0.20;;;;;;;12.99;48.30;100775.03;2099637;28;20091;-71
2022/04/27 02:38:33;;;;;;;2.00;0.30;;;;;;;12.99;48.33;100774.16;2097158;28;20146;-71
2022/04/27 02:39:59;;;;;;;1.23;0.35;;;;;;;12.97;48.28;100773.25;2095255;28;20055;-71
2022/04/27 02:41:22;;;;;;;4.38;0.40;;;;;;;12.99;48.25;100779.47;2098467;28;20070;-72
2022/04/27 02:42:44;;;;;;;1.40;0.25;;;;;;;12.97;48.29;100778.56;2094217;28;20139;-71
2022/04/27 02:44:07;;;;;;;5.00;0.40;;;;;;;12.88;48.27;100778.47;2100203;28;20096;-71
2022/04/27 02:45:30;;;;;;;4.75;0.40;;;;;;;12.86;48.41;100781.16;2100423;28;20047;-72
2022/04/27 02:46:53;;;;;;;0.15;0.10;;;;;;;12.91;48.35;100783.81;2089421;28;20089;-72
2022/04/27 02:48:16;;;;;;;3.58;0.63;;;;;;;12.93;48.31;100790.03;2100091;28;20147;-72
2022/04/27 02:52:58;;;;;;;3.75;0.43;;;;;;;12.93;48.23;100784.72;2096583;28;20651;-71
2022/04/27 02:54:40;;;;;;;1.67;0.35;;;;;;;12.92;48.16;100793.53;2103892;28;20079;-71
2022/04/27 02:56:03;;;;;;;0.80;0.55;;;;;;;12.92;48.20;100791.78;2094869;28;20098;-74
2022/04/27 02:57:27;;;;;;;2.65;0.63;;;;;;;12.92;48.21;100789.13;2100136;28;20530;-71
2022/04/27 02:58:50;;;;;;;3.17;0.30;;;;;;;12.90;48.25;100790.88;2093625;28;20477;-72
2022/04/27 03:00:14;;;;;;;2.60;0.30;;;;;;;12.91;48.28;100797.94;2091028;28;20056;-71
2022/04/27 03:01:38;;;;;;;3.80;1.30;;;;;;;12.91;48.34;100794.41;2099882;28;20044;-71
2022/04/27 03:03:01;;;;;;;2.80;0.88;;;;;;;12.92;48.36;100796.19;2098115;28;20086;-71
2022/04/27 03:04:24;;;;;;;1.00;0.20;;;;;;;12.89;48.45;100797.03;2094505;28;20163;-72
2022/04/27 03:05:46;;;;;;;4.68;0.30;;;;;;;12.85;48.51;100799.66;2098961;28;20070;-71
2022/04/27 03:07:09;;;;;;;3.05;0.52;;;;;;;12.82;48.62;100796.97;2094208;28;20072;-71
2022/04/27 03:08:39;;;;;;;4.15;0.52;;;;;;;12.80;48.67;100801.41;2093926;28;20102;-72
2022/04/27 03:10:04;;;;;;;2.22;0.25;;;;;;;12.82;48.70;100797.88;2100357;28;20051;-72
2022/04/27 03:11:27;;;;;;;5.78;0.50;;;;;;;12.82;48.62;100799.63;2094955;28;20040;-72
2022/04/27 03:13:11;;;;;;;2.88;0.50;;;;;;;12.83;48.55;100804.06;2098668;28;20055;-74
2022/04/27 03:14:33;;;;;;;7.60;0.77;;;;;;;12.83;48.65;100810.25;2096200;28;20440;-71
2022/04/27 03:15:56;;;;;;;3.25;0.60;;;;;;;12.83;48.43;100814.66;2094422;28;20589;-72
2022/04/27 03:17:18;;;;;;;2.30;0.47;;;;;;;12.81;48.43;100817.28;2093494;28;20528;-72
2022/04/27 03:18:39;;;;;;;1.38;0.30;;;;;;;12.77;48.48;100816.41;2093594;28;20037;-72
2022/04/27 03:20:04;;;;;;;1.15;0.40;;;;;;;12.76;48.51;100821.66;2099796;28;20511;-72
2022/04/27 03:21:29;;;;;;;1.10;0.28;;;;;;;12.75;48.50;100820.78;2096233;28;20059;-72
2022/04/27 03:22:53;;;;;;;2.75;0.70;;;;;;;12.76;48.44;100821.66;2100080;28;20147;-72
2022/04/27 03:24:14;;;;;;;0.98;0.47;;;;;;;12.77;48.39;100820.81;2094164;28;20143;-72
2022/04/27 03:25:39;;;;;;;0.77;0.32;;;;;;;12.82;48.22;100831.44;2086033;28;20118;-72
2022/04/27 03:27:02;;;;;;;0.88;0.30;;;;;;;12.80;48.26;100826.09;2083866;28;20079;-71
2022/04/27 03:28:24;;;;;;;3.25;0.50;;;;;;;12.82;48.30;100820.81;2082961;28;20408;-72
2022/04/27 03:29:50;;;;;;;1.80;0.57;;;;;;;12.85;48.27;100823.50;2100353;28;20048;-72
2022/04/27 03:31:13;;;;;;;2.55;0.60;;;;;;;12.86;48.18;100833.25;2088648;28;20076;-74
2022/04/27 03:32:36;;;;;;;3.90;0.60;;;;;;;12.89;48.15;100827.94;2091972;28;20041;-71
2022/04/27 03:33:59;;;;;;;;;;;;;;;12.91;48.04;100832.41;2086492;28;20045;-71
2022/04/27 03:35:21;;;;;;;2.92;0.50;;;;;;;12.90;48.02;100822.66;2091732;28;19920;-72
2022/04/27 03:36:43;;;;;;;1.98;0.50;;;;;;;12.93;47.97;100827.97;2088256;28;20052;-71
2022/04/27 03:38:08;;;;;;;1.30;0.52;;;;;;;12.94;47.95;100836.81;2093590;28;20040;-71
2022/04/27 03:39:31;;;;;;;1.63;0.40;;;;;;;12.92;48.12;100830.63;2094553;28;20087;-72
2022/04/27 03:40:54;;;;;;;4.53;0.43;;;;;;;12.94;48.03;100831.50;2091285;28;20090;-72
2022/04/27 03:42:17;;;;;;;5.10;0.55;;;;;;;12.96;48.07;100835.06;2096510;28;20082;-72
2022/04/27 03:43:43;;;;;;;3.17;0.50;;;;;;;13.01;48.05;100825.38;2092141;28;20048;-72
2022/04/27 03:45:07;;;;;;;0.95;0.13;;;;;;;13.01;48.02;100823.63;2116085;27;20558;-73
2022/04/27 03:46:36;;;;;;;2.97;0.50;;;;;;;13.04;47.88;100828.06;2098487;28;20143;-72
2022/04/27 03:47:57;;;;;;;1.30;0.30;;;;;;;13.11;48.02;100830.78;2094229;28;20080;-72
2022/04/27 03:49:22;;;;;;;1.80;0.57;;;;;;;13.23;47.96;100829.97;2090872;28;20045;-75
2022/04/27 03:50:45;;;;;;;3.28;0.40;;;;;;;13.37;47.73;100827.41;2083531;28;20077;-72
2022/04/27 03:52:08;;;;;;;4.18;0.40;;;;;;;13.50;47.76;100830.13;2086924;28;20098;-72
2022/04/27 03:53:32;;;;;;;2.25;0.50;;;;;;;13.62;47.50;100825.75;2091846;28;20044;-72
2022/04/27 03:54:54;;;;;;;4.10;0.65;;;;;;;13.71;47.61;100825.78;2090904;28;20131;-72
2022/04/27 03:56:19;;;;;;;1.15;0.30;;;;;;;13.80;47.56;100825.81;2094253;28;20051;-73
2022/04/27 03:57:41;;;;;;;3.03;0.70;;;;;;;13.88;47.54;100821.41;2093091;28;20044;-72
2022/04/27 03:59:04;;;;;;;3.92;0.60;;;;;;;13.98;47.55;100823.19;2091506;28;20548;-72
2022/04/27 04:00:25;;;;;;;2.25;0.50;;;;;;;14.10;47.67;100831.22;2099301;28;20135;-72
2022/04/27 04:01:58;;;;;;;2.42;0.63;;;;;;;14.19;47.62;100830.34;2095290;28;20052;-72
2022/04/27 04:03:21;;;;;;;1.08;0.40;;;;;;;14.29;47.55;100829.47;2093854;28;20047;-72
2022/04/27 04:04:43;;;;;;;1.67;0.40;;;;;;;14.39;47.46;100838.38;2088890;28;20040;-72
2022/04/27 04:06:06;;;;;;;1.00;0.30;;;;;;;14.51;47.32;100838.38;2090229;28;20551;-71
2022/04/27 04:07:42;;;;;;;1.98;0.50;;;;;;;14.63;47.16;100844.63;2098147;28;20485;-72
2022/04/27 04:09:05;;;;;;;1.98;0.20;;;;;;;14.75;47.07;100841.94;2088551;28;20045;-71
2022/04/27 04:10:26;;;;;;;2.38;0.40;;;;;;;14.90;46.94;100845.50;2087923;28;20049;-71
2022/04/27 04:11:50;;;;;;;1.55;0.30;;;;;;;15.03;46.89;100842.78;2082284;28;20052;-71
2022/04/27 04:13:13;;;;;;;2.28;0.30;;;;;;;15.16;46.76;100852.50;2094106;28;20051;-72
2022/04/27 04:15:11;;;;;;;1.38;0.30;;;;;;;15.34;46.51;100854.28;2104776;28;20040;-72
2022/04/27 04:17:00;;;;;;;1.33;0.30;;;;;;;15.51;46.39;100855.09;2089323;28;20154;-72
2022/04/27 04:18:22;;;;;;;6.22;0.50;;;;;;;15.64;46.17;100855.97;2101194;28;20763;-72
2022/04/27 04:20:00;;;;;;;3.17;0.30;;;;;;;15.79;45.98;100861.25;2096181;28;20139;-73
2022/04/27 04:21:49;;;;;;;4.63;0.38;;;;;;;15.95;45.97;100860.28;2104444;28;20047;-72
2022/04/27 04:23:31;;;;;;;2.80;0.40;;;;;;;16.15;45.66;100861.94;2095692;28;20052;-72
2022/04/27 04:28:33;;;;;;;1.23;0.38;;;;;;;16.58;45.15;100867.91;2112242;28;20678;-72
2022/04/27 04:29:56;;;;;;;3.25;0.40;;;;;;;16.65;45.01;100870.56;2089984;28;20057;-72
2022/04/27 04:31:18;;;;;;;1.13;0.30;;;;;;;16.73;45.07;100876.72;2091202;28;20036;-71
2022/04/27 04:33:04;;;;;;;4.28;0.73;;;;;;;16.86;45.00;100874.84;2082771;28;20049;-71
2022/04/27 04:34:30;;;;;;;5.70;0.70;;;;;;;16.98;45.11;100879.16;2101553;28;20055;-72
2022/04/27 04:35:52;;;;;;;2.50;0.55;;;;;;;17.15;44.90;100879.91;2091945;28;20143;-72
2022/04/27 04:37:15;;;;;;;3.33;0.80;;;;;;;17.35;44.77;100879.69;2093242;28;20082;-72
2022/04/27 04:38:38;;;;;;;3.38;1.00;;;;;;;17.53;44.65;100882.16;2091290;28;20037;-72
2022/04/27 04:40:02;;;;;;;3.95;0.68;;;;;;;17.72;44.41;100882.91;2090837;28;20115;-72
2022/04/27 04:41:26;;;;;;;2.67;0.70;;;;;;;17.90;44.21;100885.34;2094145;28;20516;-73
2022/04/27 04:42:52;;;;;;;5.10;1.10;;;;;;;18.09;43.98;100892.22;2100542;28;20058;-73
2022/04/27 04:44:16;;;;;;;2.28;0.57;;;;;;;18.30;43.80;100888.38;2093724;28;20070;-73
2022/04/27 04:45:57;;;;;;;2.88;0.70;;;;;;;18.54;43.68;100884.44;2096377;28;20072;-73
2022/04/27 04:47:38;;;;;;;2.17;0.63;;;;;;;18.78;43.33;100881.41;2102858;28;20094;-73
2022/04/27 04:49:30;;;;;;;2.25;0.43;;;;;;;19.06;43.23;100890.75;2096637;28;20963;-72
2022/04/27 04:51:15;;;;;;;2.00;0.40;;;;;;;19.32;42.77;100886.75;2082765;28;20057;-73
2022/04/27 04:52:47;;;;;;;0.90;0.30;;;;;;;19.55;42.31;100876.53;2087672;28;20068;-72
2022/04/27 04:54:30;;;;;;;1.92;0.52;;;;;;;19.78;41.76;100882.31;2100527;28;20074;-72
2022/04/27 04:56:10;;;;;;;2.58;0.85;;;;;;;20.05;41.36;100888.88;2102862;28;20100;-73
2022/04/27 04:57:59;;;;;;;3.53;0.60;;;;;;;20.35;41.11;100889.19;2103499;28;20048;-72
2022/04/27 04:59:40;;;;;;;3.10;0.70;;;;;;;20.61;40.49;100892.16;2095022;28;20459;-72
2022/04/27 05:01:22;;;;;;;3.45;0.82;;;;;;;20.81;40.15;100894.31;2104849;28;20146;-72
2022/04/27 05:03:05;;;;;;;;;;;;;;;21.03;39.60;100887.53;2104938;28;20072;-73
2022/04/27 05:04:46;;;;;;;4.40;1.00;;;;;;;21.30;39.13;100884.16;2104545;28;20005;-72
2022/04/27 05:06:34;;;;;;;6.10;2.10;;;;;;;21.53;38.82;100893.41;2089353;28;20063;-73
2022/04/27 05:08:21;;;;;;;9.15;2.17;;;;;;;21.71;38.15;100890.22;2102768;28;20060;-72
2022/04/27 05:10:01;;;;;;;11.20;1.73;;;;;;;21.95;37.65;100894.00;2103188;28;20087;-72
2022/04/27 05:11:43;;;;;;;10.77;2.05;;;;;;;22.16;37.45;100891.59;2103953;28;20078;-74
2022/04/27 05:13:19;;;;;;;6.78;1.35;;;;;;;22.37;37.17;100883.81;2087012;28;20135;-73
2022/04/27 05:15:09;;;;;;;5.43;1.80;;;;;;;22.64;36.69;100894.56;2082225;28;20088;-73
2022/04/27 05:17:01;;;;;;;7.82;2.08;;;;;;;22.95;36.40;100888.22;2095230;28;20587;-73
2022/04/27 05:18:35;;;;;;;5.72;1.80;;;;;;;23.21;35.92;100890.91;2099534;28;20141;-73
2022/04/27 05:20:13;;;;;;;12.30;2.88;;;;;;;23.43;35.39;100891.06;2094785;28;20032;-74
2022/04/27 05:22:12;;;;;;;11.73;3.13;;;;;;;23.72;35.01;100890.91;2096783;28;20076;-73
2022/04/27 05:23:53;;;;;;;9.90;3.05;;;;;;;23.95;34.90;100894.59;2085144;28;20153;-73
2022/04/27 05:25:35;;;;;;;4.30;1.80;;;;;;;24.16;34.60;100891.94;2095862;28;20040;-73
2022/04/27 05:27:09;;;;;;;8.60;2.70;;;;;;;24.46;34.19;100899.81;2095298;28;20385;-73
2022/04/27 05:33:18;;;;;;;7.47;1.95;;;;;;;25.36;33.69;100903.28;2089116;28;20144;-73
2022/04/27 05:34:48;;;;;;;12.38;5.13;;;;;;;25.57;33.35;100898.78;2091062;28;20037;-73
2022/04/27 05:36:16;;;;;;;8.32;2.92;;;;;;;25.77;33.11;100906.91;2095904;28;20142;-73
2022/04/27 05:37:55;;;;;;;8.73;1.60;;;;;;;25.97;32.83;100897.88;2088690;28;20052;-73
2022/04/27 05:39:44;;;;;;;7.85;1.20;;;;;;;26.09;32.78;100908.13;2090832;28;20048;-73
2022/04/27 05:41:29;;;;;;;6.80;2.42;;;;;;;26.27;32.24;100910.97;2102810;28;20044;-73
2022/04/27 05:43:05;;;;;;;5.40;1.80;;;;;;;26.37;31.92;100906.88;2095489;28;20066;-73
2022/04/27 05:44:57;;;;;;;6.57;2.25;;;;;;;26.57;31.57;100915.81;2092607;28;20625;-72
2022/04/27 05:46:47;;;;;;;7.50;2.00;;;;;;;26.76;31.56;100914.91;2090928;28;20052;-73
2022/04/27 05:48:30;;;;;;;6.53;1.38;;;;;;;26.85;31.03;100909.03;2075051;28;20034;-73
2022/04/27 05:50:19;;;;;;;6.03;1.50;;;;;;;26.94;30.80;100904.06;2094740;28;20083;-73
2022/04/27 05:52:08;;;;;;;10.13;1.40;;;;;;;26.97;30.92;100911.19;2103663;28;20143;-73
2022/04/27 05:53:49;;;;;;;8.35;1.55;;;;;;;27.03;30.86;100910.00;2103999;28;20093;-73
2022/04/27 05:55:30;;;;;;;4.70;1.45;;;;;;;27.09;31.08;100906.97;2105828;28;20154;-73
2022/04/27 05:57:18;;;;;;;7.90;1.75;;;;;;;27.19;31.25;100910.97;2089786;28;20085;-74
2022/04/27 05:59:19;;;;;;;8.60;1.00;;;;;;;27.35;31.24;100907.41;2064012;28;20141;-74
2022/04/27 06:01:00;;;;;;;10.63;1.50;;;;;;;27.49;31.16;100903.09;2080387;28;20059;-74
2022/04/27 06:02:37;;;;;;;5.93;1.20;;;;;;;27.52;31.19;100908.38;2065010;28;20070;-74
2022/04/27 06:04:00;;;;;;;7.95;1.17;;;;;;;27.52;31.22;100905.66;2070199;28;20054;-74
2022/04/27 06:05:25;;;;;;;7.25;1.17;;;;;;;27.55;31.20;100906.41;2092342;28;20060;-74
2022/04/27 06:06:47;;;;;;;5.88;1.02;;;;;;;27.61;31.20;100902.50;2088139;28;20145;-74
2022/04/27 06:08:14;;;;;;;6.40;0.95;;;;;;;27.59;31.15;100901.69;2095037;28;20044;-74
2022/04/27 06:09:36;;;;;;;5.85;1.15;;;;;;;27.63;30.93;100906.00;2092314;28;20052;-74
2022/04/27 06:11:05;;;;;;;7.25;0.85;;;;;;;27.69;30.58;100909.28;2086813;28;20086;-75
2022/04/27 06:12:49;;;;;;;14.38;3.13;;;;;;;27.81;30.77;100909.56;2088513;28;20053;-74
2022/04/27 06:14:40;;;;;;;10.27;3.03;;;;;;;27.86;30.87;100910.19;2069258;28;20073;-74
2022/04/27 06:16:08;;;;;;;11.82;2.97;;;;;;;27.98;30.76;100910.41;2092240;28;20551;-74
2022/04/27 06:17:47;;;;;;;9.82;2.50;;;;;;;28.07;30.54;100909.03;2096834;28;20083;-74
2022/04/27 06:19:14;;;;;;;10.65;2.75;;;;;;;28.07;30.48;100917.19;2100582;28;20767;-74
2022/04/27 06:20:38;;;;;;;8.88;1.23;;;;;;;28.07;30.13;100912.63;2084435;28;20052;-74
2022/04/27 06:22:02;;;;;;;4.32;0.57;;;;;;;28.07;30.05;100914.47;2106684;28;20108;-75
2022/04/27 06:23:28;;;;;;;2.13;0.75;;;;;;;28.05;29.76;100910.94;2088961;28;20135;-74
2022/04/27 06:24:49;;;;;;;5.03;1.00;;;;;;;28.03;29.92;100907.44;2097692;28;20511;-74
2022/04/27 06:26:33;;;;;;;5.97;0.77;;;;;;;28.09;29.85;100913.41;2103225;28;20040;-74
2022/04/27 06:27:57;;;;;;;4.57;0.85;;;;;;;28.12;30.15;100912.38;2094295;28;20059;-74
2022/04/27 06:29:19;;;;;;;5.90;1.00;;;;;;;28.16;29.89;100922.13;2087816;28;20619;-74
2022/04/27 06:30:45;;;;;;;10.57;1.13;;;;;;;28.13;30.12;100920.44;2097443;28;20044;-74
2022/04/27 06:32:08;;;;;;;5.65;1.38;;;;;;;28.14;30.11;100915.94;2097267;28;20052;-75
2022/04/27 06:33:33;;;;;;;4.68;1.05;;;;;;;28.14;29.77;100918.66;2096998;28;20044;-74
2022/04/27 06:34:56;;;;;;;8.98;1.10;;;;;;;28.05;30.27;100913.66;2092356;28;20044;-74
2022/04/27 06:36:19;;;;;;;13.60;2.75;;;;;;;28.10;30.60;100915.16;2096111;28;20052;-75
2022/04/27 06:37:43;;;;;;;6.35;1.75;;;;;;;28.15;30.67;100923.13;2094675;28;20131;-75
2022/04/27 06:39:07;;;;;;;6.97;1.40;;;;;;;28.11;30.80;100914.22;2102303;28;20044;-75
2022/04/27 06:40:30;;;;;;;4.15;0.85;;;;;;;27.98;30.48;100915.84;2092428;28;20559;-75
2022/04/27 06:41:53;;;;;;;8.57;1.15;;;;;;;27.79;30.72;100922.34;2085913;28;20048;-75
2022/04/27 06:43:27;;;;;;;5.47;1.10;;;;;;;27.75;31.00;100919.81;2096255;28;20040;-74
2022/04/27 06:45:09;;;;;;;5.88;1.63;;;;;;;27.80;30.78;100913.25;2097459;28;20048;-74
2022/04/27 06:46:50;;;;;;;3.42;1.35;;;;;;;27.64;31.28;100910.44;2112113;28;20051;-75
2022/04/27 06:48:33;;;;;;;4.78;1.05;;;;;;;27.55;31.52;100919.97;2102930;28;21557;-76
2022/04/27 06:50:25;;;;;;;7.07;1.15;;;;;;;27.43;32.33;100919.69;2071941;28;20093;-75
2022/04/27 06:52:07;;;;;;;5.80;1.05;;;;;;;27.40;32.77;100923.44;2085959;28;20370;-75
2022/04/27 06:53:52;;;;;;;6.40;0.95;;;;;;;27.37;33.07;100921.75;2076806;28;20049;-75
2022/04/27 06:55:45;;;;;;;4.50;1.17;;;;;;;27.47;33.21;100922.16;2097442;28;20109;-75
2022/04/27 06:57:10;;;;;;;5.93;1.00;;;;;;;27.49;32.61;100925.69;2093740;28;20061;-75
2022/04/27 06:58:47;;;;;;;8.02;1.17;;;;;;;27.41;32.76;100919.78;2095455;28;20048;-75
2022/04/27 07:00:16;;;;;;;4.15;1.10;;;;;;;27.33;32.77;100924.69;2101269;28;20044;-75
2022/04/27 07:01:40;;;;;;;4.93;1.05;;;;;;;27.30;32.97;100923.03;2086281;28;20083;-75
2022/04/27 07:03:05;;;;;;;9.77;1.52;;;;;;;27.35;32.83;100928.22;2099674;28;20128;-74
2022/04/27 07:04:34;;;;;;;7.95;1.38;;;;;;;27.41;32.61;100927.91;2109925;28;20051;-74